Time,TemperatureF,DewpointF,PressureIn,WindDirection,WindDirectionDegrees,WindSpeedMPH,WindSpeedGustMPH,Humidity,HourlyPrecipIn,Conditions,Clouds,dailyrainin,SoftwareType,DateUTC
2013-03-22 00:04:00,50.5,39.9,30.03,WNW,293,0.0,0.0,67,0.00,,,0.00,WUHU216HW,2013-03-22 07:04:00,
2013-03-22 00:09:00,50.5,39.9,30.03,WNW,293,0.0,0.0,67,0.00,,,0.00,WUHU216HW,2013-03-22 07:09:00,
2013-03-22 00:14:00,50.3,40.1,30.03,WNW,293,0.0,0.0,68,0.00,,,0.00,WUHU216HW,2013-03-22 07:14:00,
2013-03-22 00:19:00,50.3,40.1,30.03,WNW,293,0.0,0.0,68,0.00,,,0.00,WUHU216HW,2013-03-22 07:19:00,
2013-03-22 00:25:00,50.1,40.0,30.03,WNW,293,0.0,0.0,68,0.00,,,0.00,WUHU216HW,2013-03-22 07:25:00,
2013-03-22 00:30:00,50.1,40.0,30.03,WNW,293,0.0,0.0,68,0.00,,,0.00,WUHU216HW,2013-03-22 07:30:00,
2013-03-22 00:35:00,50.0,39.8,30.03,WNW,293,0.0,0.0,68,0.00,,,0.00,WUHU216HW,2013-03-22 07:35:00,
2013-03-22 00:40:00,49.8,39.6,30.03,WNW,293,0.0,0.0,68,0.00,,,0.00,WUHU216HW,2013-03-22 07:40:00,
2013-03-22 00:45:00,49.6,39.4,30.03,WNW,293,0.0,0.0,68,0.00,,,0.00,WUHU216HW,2013-03-22 07:45:00,
2013-03-22 00:50:00,49.6,39.4,30.03,WNW,293,0.0,0.0,68,0.00,,,0.00,WUHU216HW,2013-03-22 07:50:00,
2013-03-22 00:55:00,49.4,39.3,30.03,WNW,293,0.0,0.0,68,0.00,,,0.00,WUHU216HW,2013-03-22 07:55:00,
2013-03-22 01:00:00,49.2,39.5,30.03,WNW,293,0.0,0.0,69,0.00,,,0.00,WUHU216HW,2013-03-22 08:00:00,
2013-03-22 01:05:00,49.2,39.5,30.03,West,270,0.0,0.0,69,0.00,,,0.00,WUHU216HW,2013-03-22 08:05:00,
2013-03-22 01:10:00,49.2,39.5,30.03,West,270,0.0,0.0,69,0.00,,,0.00,WUHU216HW,2013-03-22 08:10:00,
2013-03-22 01:15:00,49.2,39.5,30.03,West,270,0.0,0.0,69,0.00,,,0.00,WUHU216HW,2013-03-22 08:15:00,
2013-03-22 01:20:00,49.1,39.3,30.03,SSW,203,0.0,0.0,69,0.00,,,0.00,WUHU216HW,2013-03-22 08:20:00,
2013-03-22 01:25:00,48.9,39.1,30.03,NNW,338,0.0,0.0,69,0.00,,,0.00,WUHU216HW,2013-03-22 08:25:00,
2013-03-22 01:30:00,48.9,39.1,30.03,North,0,0.0,0.0,69,0.00,,,0.00,WUHU216HW,2013-03-22 08:30:00,
2013-03-22 01:35:00,48.9,39.1,30.03,SW,225,0.0,0.0,69,0.00,,,0.00,WUHU216HW,2013-03-22 08:35:00,
2013-03-22 01:40:00,48.9,39.1,30.03,SSW,203,0.0,0.0,69,0.00,,,0.00,WUHU216HW,2013-03-22 08:40:00,
2013-03-22 01:45:00,48.9,39.1,30.03,SSW,203,0.0,0.0,69,0.00,,,0.00,WUHU216HW,2013-03-22 08:45:00,
2013-03-22 01:50:00,48.7,38.9,30.03,SW,225,0.0,0.0,69,0.00,,,0.00,WUHU216HW,2013-03-22 08:50:00,
2013-03-22 01:56:00,48.7,38.9,30.03,NNW,338,0.0,0.0,69,0.00,,,0.00,WUHU216HW,2013-03-22 08:56:00,
2013-03-22 02:01:00,48.7,38.9,30.03,NW,315,0.0,0.0,69,0.00,,,0.00,WUHU216HW,2013-03-22 09:01:00,
2013-03-22 02:06:00,48.7,39.3,30.03,WSW,248,0.0,0.0,70,0.00,,,0.00,WUHU216HW,2013-03-22 09:06:00,
2013-03-22 02:11:00,48.7,39.3,30.03,SW,225,0.0,0.0,70,0.00,,,0.00,WUHU216HW,2013-03-22 09:11:00,
2013-03-22 02:16:00,48.7,39.3,30.03,WNW,293,3.8,3.8,70,0.00,,,0.00,WUHU216HW,2013-03-22 09:16:00,
2013-03-22 02:21:00,48.5,39.2,30.03,WNW,293,0.0,3.8,70,0.00,,,0.00,WUHU216HW,2013-03-22 09:21:00,
2013-03-22 02:26:00,48.3,39.0,30.03,SSW,203,0.0,0.0,70,0.00,,,0.00,WUHU216HW,2013-03-22 09:26:00,
2013-03-22 02:31:00,48.2,38.8,30.03,SSW,203,0.0,0.0,70,0.00,,,0.00,WUHU216HW,2013-03-22 09:31:00,
2013-03-22 02:36:00,48.0,39.0,30.03,SSW,203,0.0,0.0,71,0.00,,,0.00,WUHU216HW,2013-03-22 09:36:00,
2013-03-22 02:41:00,48.0,39.0,30.03,SSW,203,0.0,0.0,71,0.00,,,0.00,WUHU216HW,2013-03-22 09:41:00,
2013-03-22 02:46:00,48.0,39.0,30.03,SSW,203,0.0,0.0,71,0.00,,,0.00,WUHU216HW,2013-03-22 09:46:00,
2013-03-22 02:51:00,48.0,39.0,30.03,SSW,203,0.0,0.0,71,0.00,,,0.00,WUHU216HW,2013-03-22 09:51:00,
2013-03-22 02:57:00,48.0,39.0,30.03,SSW,203,0.0,0.0,71,0.00,,,0.00,WUHU216HW,2013-03-22 09:57:00,
2013-03-22 03:02:00,47.8,38.8,30.03,SE,135,0.0,0.0,71,0.00,,,0.00,WUHU216HW,2013-03-22 10:02:00,
2013-03-22 03:07:00,47.8,39.2,30.03,SE,135,0.0,0.0,72,0.00,,,0.00,WUHU216HW,2013-03-22 10:07:00,
2013-03-22 03:12:00,47.8,39.2,30.03,SE,135,0.0,0.0,72,0.00,,,0.00,WUHU216HW,2013-03-22 10:12:00,
2013-03-22 03:17:00,47.8,39.2,30.03,SSW,203,0.0,0.0,72,0.00,,,0.00,WUHU216HW,2013-03-22 10:17:00,
2013-03-22 03:22:00,47.6,39.0,30.02,WNW,293,0.0,0.8,72,0.00,,,0.00,WUHU216HW,2013-03-22 10:22:00,
2013-03-22 03:27:00,47.6,39.0,30.02,SSW,203,0.0,0.8,72,0.00,,,0.00,WUHU216HW,2013-03-22 10:27:00,
2013-03-22 03:32:00,47.4,38.8,30.02,West,270,0.0,1.7,72,0.00,,,0.00,WUHU216HW,2013-03-22 10:32:00,
2013-03-22 03:37:00,47.4,38.8,30.02,SW,225,0.0,1.7,72,0.00,,,0.00,WUHU216HW,2013-03-22 10:37:00,
2013-03-22 03:42:00,47.4,38.8,30.03,NW,315,0.0,0.0,72,0.00,,,0.00,WUHU216HW,2013-03-22 10:42:00,
2013-03-22 03:47:00,47.4,38.8,30.03,SE,135,0.0,0.0,72,0.00,,,0.00,WUHU216HW,2013-03-22 10:47:00,
2013-03-22 03:52:00,47.3,38.7,30.03,SE,135,0.0,0.0,72,0.00,,,0.00,WUHU216HW,2013-03-22 10:52:00,
2013-03-22 03:57:00,47.1,38.5,30.03,SW,225,0.0,0.0,72,0.00,,,0.00,WUHU216HW,2013-03-22 10:57:00,
2013-03-22 04:02:00,47.1,38.5,30.03,NW,315,0.0,0.0,72,0.00,,,0.00,WUHU216HW,2013-03-22 11:02:00,
2013-03-22 04:07:00,47.1,38.5,30.03,WNW,293,0.0,0.0,72,0.00,,,0.00,WUHU216HW,2013-03-22 11:07:00,
2013-03-22 04:12:00,46.9,38.3,30.03,WNW,293,0.0,0.0,72,0.00,,,0.00,WUHU216HW,2013-03-22 11:12:00,
2013-03-22 04:18:00,46.9,38.3,30.03,West,270,0.0,0.0,72,0.00,,,0.00,WUHU216HW,2013-03-22 11:18:00,
2013-03-22 04:23:00,46.9,38.3,30.03,WNW,293,0.0,0.0,72,0.00,,,0.00,WUHU216HW,2013-03-22 11:23:00,
2013-03-22 04:28:00,46.9,38.3,30.03,WNW,293,0.0,0.0,72,0.00,,,0.00,WUHU216HW,2013-03-22 11:28:00,
2013-03-22 04:33:00,46.7,38.2,30.03,SSW,203,0.0,0.0,72,0.00,,,0.00,WUHU216HW,2013-03-22 11:33:00,
2013-03-22 04:38:00,46.7,38.2,30.02,SW,225,0.0,0.0,72,0.00,,,0.00,WUHU216HW,2013-03-22 11:38:00,
2013-03-22 04:43:00,46.5,38.0,30.02,West,270,0.0,0.0,72,0.00,,,0.00,WUHU216HW,2013-03-22 11:43:00,
2013-03-22 04:48:00,46.5,38.0,30.02,WNW,293,0.0,1.7,72,0.00,,,0.00,WUHU216HW,2013-03-22 11:48:00,
2013-03-22 04:53:00,46.5,38.0,30.03,NW,315,0.0,1.7,72,0.00,,,0.00,WUHU216HW,2013-03-22 11:53:00,
2013-03-22 04:58:00,46.5,38.0,30.03,SSW,203,0.0,0.0,72,0.00,,,0.00,WUHU216HW,2013-03-22 11:58:00,
2013-03-22 05:03:00,46.7,38.2,30.03,SE,135,0.0,0.4,72,0.00,,,0.00,WUHU216HW,2013-03-22 12:03:00,
2013-03-22 05:08:00,46.7,38.2,30.03,WNW,293,0.0,0.4,72,0.00,,,0.00,WUHU216HW,2013-03-22 12:08:00,
2013-03-22 05:13:00,46.7,38.2,30.03,NNW,338,0.0,0.0,72,0.00,,,0.00,WUHU216HW,2013-03-22 12:13:00,
2013-03-22 05:18:00,46.7,38.2,30.02,WNW,293,0.0,0.0,72,0.00,,,0.00,WUHU216HW,2013-03-22 12:18:00,
2013-03-22 05:23:00,46.5,38.0,30.02,WNW,293,0.0,0.0,72,0.00,,,0.00,WUHU216HW,2013-03-22 12:23:00,
2013-03-22 05:28:00,46.5,38.0,30.03,West,270,4.6,4.6,72,0.00,,,0.00,WUHU216HW,2013-03-22 12:28:00,
2013-03-22 05:33:00,46.5,38.0,30.02,WNW,293,0.0,4.6,72,0.00,,,0.00,WUHU216HW,2013-03-22 12:33:00,
2013-03-22 05:39:00,46.5,38.0,30.02,North,0,0.0,0.0,72,0.00,,,0.00,WUHU216HW,2013-03-22 12:39:00,
2013-03-22 05:44:00,46.5,38.0,30.02,WSW,248,0.0,0.0,72,0.00,,,0.00,WUHU216HW,2013-03-22 12:44:00,
2013-03-22 05:49:00,46.5,38.0,30.02,WNW,293,0.0,0.0,72,0.00,,,0.00,WUHU216HW,2013-03-22 12:49:00,
2013-03-22 05:54:00,46.4,37.9,30.02,WNW,293,0.0,0.0,72,0.00,,,0.00,WUHU216HW,2013-03-22 12:54:00,
2013-03-22 05:59:00,46.4,37.9,30.03,NNE,23,0.0,0.0,72,0.00,,,0.00,WUHU216HW,2013-03-22 12:59:00,
2013-03-22 06:04:00,46.2,37.7,30.03,SW,225,0.0,0.0,72,0.00,,,0.00,WUHU216HW,2013-03-22 13:04:00,
2013-03-22 06:09:00,46.2,37.7,30.03,SW,225,0.0,0.0,72,0.00,,,0.00,WUHU216HW,2013-03-22 13:09:00,
2013-03-22 06:14:00,46.2,38.0,30.03,South,180,0.0,0.0,73,0.00,,,0.00,WUHU216HW,2013-03-22 13:14:00,
2013-03-22 06:19:00,46.0,37.8,30.03,North,0,0.0,0.0,73,0.00,,,0.00,WUHU216HW,2013-03-22 13:19:00,
2013-03-22 06:24:00,46.0,37.8,30.03,North,0,0.0,0.0,73,0.00,,,0.00,WUHU216HW,2013-03-22 13:24:00,
2013-03-22 06:29:00,46.0,37.8,30.03,NW,315,0.0,0.0,73,0.00,,,0.00,WUHU216HW,2013-03-22 13:29:00,
2013-03-22 06:34:00,46.0,37.8,30.03,WNW,293,0.0,0.0,73,0.00,,,0.00,WUHU216HW,2013-03-22 13:34:00,
2013-03-22 06:39:00,46.0,37.8,30.03,WSW,248,0.0,0.0,73,0.00,,,0.00,WUHU216HW,2013-03-22 13:39:00,
2013-03-22 06:44:00,45.6,37.5,30.03,SSW,203,0.0,0.0,73,0.00,,,0.00,WUHU216HW,2013-03-22 13:44:00,
2013-03-22 06:49:00,45.6,37.5,30.04,SSW,203,0.0,0.0,73,0.00,,,0.00,WUHU216HW,2013-03-22 13:49:00,
2013-03-22 06:55:00,45.5,37.3,30.03,SSW,203,0.0,0.0,73,0.00,,,0.00,WUHU216HW,2013-03-22 13:55:00,
2013-03-22 07:00:00,45.5,37.3,30.04,SSW,203,0.0,0.0,73,0.00,,,0.00,WUHU216HW,2013-03-22 14:00:00,
2013-03-22 07:05:00,45.3,37.1,30.04,NW,315,0.0,0.0,73,0.00,,,0.00,WUHU216HW,2013-03-22 14:05:00,
2013-03-22 07:10:00,45.3,37.1,30.04,NNW,338,0.0,0.0,73,0.00,,,0.00,WUHU216HW,2013-03-22 14:10:00,
2013-03-22 07:15:00,45.3,37.1,30.04,NW,315,0.0,0.0,73,0.00,,,0.00,WUHU216HW,2013-03-22 14:15:00,
2013-03-22 07:20:00,45.3,37.1,30.05,North,0,0.0,0.0,73,0.00,,,0.00,WUHU216HW,2013-03-22 14:20:00,
2013-03-22 07:25:00,45.3,37.1,30.05,North,0,0.0,0.0,73,0.00,,,0.00,WUHU216HW,2013-03-22 14:25:00,
2013-03-22 07:30:00,45.3,37.1,30.05,WSW,248,0.0,0.0,73,0.00,,,0.00,WUHU216HW,2013-03-22 14:30:00,
2013-03-22 07:35:00,45.3,37.1,30.05,SSW,203,0.0,0.0,73,0.00,,,0.00,WUHU216HW,2013-03-22 14:35:00,
2013-03-22 07:40:00,45.1,37.3,30.05,WNW,293,3.5,3.5,74,0.00,,,0.00,WUHU216HW,2013-03-22 14:40:00,
2013-03-22 07:45:00,45.1,37.3,30.06,WNW,293,0.0,3.5,74,0.00,,,0.00,WUHU216HW,2013-03-22 14:45:00,
2013-03-22 07:50:00,45.3,37.1,30.06,West,270,0.0,0.8,73,0.00,,,0.00,WUHU216HW,2013-03-22 14:50:00,
2013-03-22 07:55:00,45.3,37.1,30.06,SSE,158,0.0,0.0,73,0.00,,,0.00,WUHU216HW,2013-03-22 14:55:00,
2013-03-22 08:00:00,45.5,37.3,30.06,SW,225,0.0,0.0,73,0.00,,,0.00,WUHU216HW,2013-03-22 15:00:00,
2013-03-22 08:05:00,45.5,37.3,30.06,NNW,338,0.0,0.0,73,0.00,,,0.00,WUHU216HW,2013-03-22 15:05:00,
2013-03-22 08:10:00,45.6,37.5,30.06,NW,315,0.0,0.0,73,0.00,,,0.00,WUHU216HW,2013-03-22 15:10:00,
2013-03-22 08:16:00,45.6,37.5,30.06,NW,315,0.0,0.0,73,0.00,,,0.00,WUHU216HW,2013-03-22 15:16:00,
2013-03-22 08:21:00,45.8,37.3,30.06,WSW,248,0.0,0.0,72,0.00,,,0.00,WUHU216HW,2013-03-22 15:21:00,
2013-03-22 08:26:00,46.0,37.5,30.06,West,270,0.0,0.0,72,0.00,,,0.00,WUHU216HW,2013-03-22 15:26:00,
2013-03-22 08:31:00,46.0,37.5,30.06,SW,225,0.0,0.0,72,0.00,,,0.00,WUHU216HW,2013-03-22 15:31:00,
2013-03-22 08:36:00,46.2,37.7,30.06,SW,225,0.0,0.0,72,0.00,,,0.00,WUHU216HW,2013-03-22 15:36:00,
2013-03-22 08:41:00,46.2,37.3,30.06,NNW,338,0.0,0.0,71,0.00,,,0.00,WUHU216HW,2013-03-22 15:41:00,
2013-03-22 08:46:00,46.5,38.0,30.07,NE,45,0.0,0.0,72,0.00,,,0.00,WUHU216HW,2013-03-22 15:46:00,
2013-03-22 08:52:00,46.7,37.8,30.07,WNW,293,0.0,0.0,71,0.00,,,0.00,WUHU216HW,2013-03-22 15:52:00,
2013-03-22 08:57:00,46.9,37.7,30.07,South,180,0.0,0.6,70,0.00,,,0.00,WUHU216HW,2013-03-22 15:57:00,
2013-03-22 09:02:00,47.1,37.8,30.07,West,270,2.4,2.4,70,0.00,,,0.00,WUHU216HW,2013-03-22 16:02:00,
2013-03-22 09:07:00,47.3,38.0,30.07,SW,225,0.0,2.4,70,0.00,,,0.00,WUHU216HW,2013-03-22 16:07:00,
2013-03-22 09:12:00,47.4,38.3,30.07,WSW,248,0.0,2.4,70,0.00,,,0.00,WUHU216HW,2013-03-22 16:12:00,
2013-03-22 09:17:00,47.8,38.1,30.07,WNW,293,0.0,0.0,69,0.00,,,0.00,WUHU216HW,2013-03-22 16:17:00,
2013-03-22 09:22:00,48.0,38.2,30.07,WNW,293,0.4,0.4,69,0.00,,,0.00,WUHU216HW,2013-03-22 16:22:00,
2013-03-22 09:27:00,48.3,38.2,30.07,WSW,248,0.4,0.4,68,0.00,,,0.00,WUHU216HW,2013-03-22 16:27:00,
2013-03-22 09:32:00,48.5,38.4,30.08,WNW,293,0.0,0.4,68,0.00,,,0.00,WUHU216HW,2013-03-22 16:32:00,
2013-03-22 09:37:00,48.9,38.7,30.08,WNW,293,0.0,0.8,68,0.00,,,0.00,WUHU216HW,2013-03-22 16:37:00,
2013-03-22 09:42:00,49.1,38.5,30.08,WNW,293,0.0,0.8,67,0.00,,,0.00,WUHU216HW,2013-03-22 16:42:00,
2013-03-22 09:47:00,49.2,38.7,30.08,West,270,0.0,0.0,67,0.00,,,0.00,WUHU216HW,2013-03-22 16:47:00,
2013-03-22 09:52:00,49.6,38.6,30.08,West,270,0.0,1.5,66,0.00,,,0.00,WUHU216HW,2013-03-22 16:52:00,
2013-03-22 09:57:00,49.8,38.8,30.09,NW,315,0.0,1.5,66,0.00,,,0.00,WUHU216HW,2013-03-22 16:57:00,
2013-03-22 10:02:00,50.1,38.8,30.09,SSE,158,0.0,0.0,65,0.00,,,0.00,WUHU216HW,2013-03-22 17:02:00,
2013-03-22 10:07:00,50.7,38.9,30.08,SW,225,0.0,0.0,64,0.00,,,0.00,WUHU216HW,2013-03-22 17:07:00,
2013-03-22 10:12:00,50.9,38.6,30.08,NNW,338,0.0,0.0,63,0.00,,,0.00,WUHU216HW,2013-03-22 17:12:00,
2013-03-22 10:17:00,51.2,38.6,30.09,WNW,293,0.0,0.0,62,0.00,,,0.00,WUHU216HW,2013-03-22 17:17:00,
2013-03-22 10:23:00,51.6,38.5,30.09,NNE,23,0.0,0.0,61,0.00,,,0.00,WUHU216HW,2013-03-22 17:23:00,
2013-03-22 10:28:00,51.9,38.4,30.09,West,270,1.1,1.1,60,0.00,,,0.00,WUHU216HW,2013-03-22 17:28:00,
2013-03-22 10:33:00,52.3,38.3,30.09,ENE,68,0.0,1.1,59,0.00,,,0.00,WUHU216HW,2013-03-22 17:33:00,
2013-03-22 10:38:00,52.8,37.9,30.09,NW,315,0.8,0.8,57,0.00,,,0.00,WUHU216HW,2013-03-22 17:38:00,
2013-03-22 10:43:00,53.2,37.4,30.09,WNW,293,0.0,2.0,55,0.00,,,0.00,WUHU216HW,2013-03-22 17:43:00,
2013-03-22 10:48:00,53.4,37.5,30.09,SSW,203,0.0,2.0,55,0.00,,,0.00,WUHU216HW,2013-03-22 17:48:00,
2013-03-22 10:53:00,53.9,38.0,30.09,WNW,293,0.0,0.0,55,0.00,,,0.00,WUHU216HW,2013-03-22 17:53:00,
2013-03-22 10:58:00,54.3,37.9,30.09,WNW,293,0.0,0.0,53,0.00,,,0.00,WUHU216HW,2013-03-22 17:58:00,
2013-03-22 11:03:00,54.6,37.3,30.09,WNW,293,0.0,1.7,52,0.00,,,0.00,WUHU216HW,2013-03-22 18:03:00,
2013-03-22 11:08:00,55.0,37.6,30.09,West,270,0.0,1.7,52,0.00,,,0.00,WUHU216HW,2013-03-22 18:08:00,
2013-03-22 11:13:00,55.2,37.3,30.09,South,180,0.0,0.0,51,0.00,,,0.00,WUHU216HW,2013-03-22 18:13:00,
2013-03-22 11:18:00,55.7,37.4,30.09,NW,315,0.0,0.0,50,0.00,,,0.00,WUHU216HW,2013-03-22 18:18:00,
2013-03-22 11:23:00,55.9,37.5,30.09,WNW,293,0.0,0.8,50,0.00,,,0.00,WUHU216HW,2013-03-22 18:23:00,
2013-03-22 11:28:00,56.4,36.9,30.09,North,0,0.0,1.5,48,0.00,,,0.00,WUHU216HW,2013-03-22 18:28:00,
2013-03-22 11:33:00,56.4,36.4,30.09,SW,225,0.0,1.5,47,0.00,,,0.00,WUHU216HW,2013-03-22 18:33:00,
2013-03-22 11:38:00,57.0,36.9,30.09,NNW,338,0.0,1.3,47,0.00,,,0.00,WUHU216HW,2013-03-22 18:38:00,
2013-03-22 11:44:00,57.3,36.1,30.09,WNW,293,0.0,1.3,45,0.00,,,0.00,WUHU216HW,2013-03-22 18:44:00,
2013-03-22 11:49:00,57.9,36.6,30.09,NNW,338,0.0,1.3,45,0.00,,,0.00,WUHU216HW,2013-03-22 18:49:00,
2013-03-22 11:54:00,58.1,36.1,30.09,South,180,0.0,1.3,44,0.00,,,0.00,WUHU216HW,2013-03-22 18:54:00,
2013-03-22 11:59:00,58.6,36.6,30.09,SW,225,0.8,2.6,44,0.00,,,0.00,WUHU216HW,2013-03-22 18:59:00,
2013-03-22 12:04:00,58.8,36.8,30.09,West,270,0.0,2.6,44,0.00,,,0.00,WUHU216HW,2013-03-22 19:04:00,
2013-03-22 12:09:00,59.3,36.7,30.09,SW,225,0.6,0.8,43,0.00,,,0.00,WUHU216HW,2013-03-22 19:09:00,
2013-03-22 12:14:00,59.7,36.5,30.09,NW,315,0.0,0.8,42,0.00,,,0.00,WUHU216HW,2013-03-22 19:14:00,
2013-03-22 12:19:00,60.0,36.8,30.09,WNW,293,0.0,0.8,42,0.00,,,0.00,WUHU216HW,2013-03-22 19:19:00,
2013-03-22 12:24:00,60.4,35.9,30.09,West,270,0.8,1.1,40,0.00,,,0.00,WUHU216HW,2013-03-22 19:24:00,
2013-03-22 12:29:00,60.6,36.7,30.09,West,270,0.0,1.1,41,0.00,,,0.00,WUHU216HW,2013-03-22 19:29:00,
2013-03-22 12:34:00,60.8,36.8,30.08,SW,225,0.0,0.8,41,0.00,,,0.00,WUHU216HW,2013-03-22 19:34:00,
2013-03-22 12:39:00,61.3,37.9,30.09,WNW,293,0.0,0.0,42,0.00,,,0.00,WUHU216HW,2013-03-22 19:39:00,
2013-03-22 12:44:00,61.5,38.6,30.08,West,270,0.0,0.0,43,0.00,,,0.00,WUHU216HW,2013-03-22 19:44:00,
2013-03-22 12:49:00,61.8,39.0,30.08,SSE,158,0.0,0.0,43,0.00,,,0.00,WUHU216HW,2013-03-22 19:49:00,
2013-03-22 12:54:00,62.4,38.9,30.08,East,90,0.0,1.5,42,0.00,,,0.00,WUHU216HW,2013-03-22 19:54:00,
2013-03-22 12:59:00,62.6,37.9,30.08,SW,225,0.0,1.5,40,0.00,,,0.00,WUHU216HW,2013-03-22 19:59:00,
2013-03-22 13:04:00,62.7,38.1,30.08,West,270,0.0,0.0,40,0.00,,,0.00,WUHU216HW,2013-03-22 20:04:00,
2013-03-22 13:09:00,63.1,38.4,30.08,West,270,0.0,0.0,40,0.00,,,0.00,WUHU216HW,2013-03-22 20:09:00,
2013-03-22 13:14:00,63.5,38.7,30.08,SSE,158,0.0,0.0,40,0.00,,,0.00,WUHU216HW,2013-03-22 20:14:00,
2013-03-22 13:19:00,64.0,38.5,30.08,West,270,0.0,0.0,39,0.00,,,0.00,WUHU216HW,2013-03-22 20:19:00,
2013-03-22 13:24:00,64.4,38.1,30.08,NW,315,0.0,0.0,38,0.00,,,0.00,WUHU216HW,2013-03-22 20:24:00,
2013-03-22 13:30:00,64.7,37.7,30.08,West,270,0.0,0.0,37,0.00,,,0.00,WUHU216HW,2013-03-22 20:30:00,
2013-03-22 13:35:00,64.7,38.4,30.08,WNW,293,1.3,1.3,38,0.00,,,0.00,WUHU216HW,2013-03-22 20:35:00,
2013-03-22 13:40:00,65.1,38.0,30.07,WNW,293,1.1,1.3,37,0.00,,,0.00,WUHU216HW,2013-03-22 20:40:00,
2013-03-22 13:45:00,65.1,38.0,30.07,North,0,0.0,1.1,37,0.00,,,0.00,WUHU216HW,2013-03-22 20:45:00,
2013-03-22 13:50:00,65.3,37.4,30.07,West,270,0.0,1.1,36,0.00,,,0.00,WUHU216HW,2013-03-22 20:50:00,
2013-03-22 13:55:00,65.4,36.9,30.07,WSW,248,1.1,1.1,35,0.00,,,0.00,WUHU216HW,2013-03-22 20:55:00,
2013-03-22 14:00:00,65.4,37.6,30.07,NNW,338,0.0,1.1,36,0.00,,,0.00,WUHU216HW,2013-03-22 21:00:00,
2013-03-22 14:05:00,65.8,37.2,30.07,NW,315,0.0,1.1,35,0.00,,,0.00,WUHU216HW,2013-03-22 21:05:00,
2013-03-22 14:10:00,66.0,37.4,30.06,ENE,68,0.0,0.0,35,0.00,,,0.00,WUHU216HW,2013-03-22 21:10:00,
2013-03-22 14:15:00,66.5,37.1,30.06,WSW,248,0.0,1.3,34,0.00,,,0.00,WUHU216HW,2013-03-22 21:15:00,
2013-03-22 14:20:00,66.7,38.0,30.06,WNW,293,1.3,1.3,35,0.00,,,0.00,WUHU216HW,2013-03-22 21:20:00,
2013-03-22 14:25:00,66.7,37.3,30.06,WSW,248,2.6,2.6,34,0.00,,,0.00,WUHU216HW,2013-03-22 21:25:00,
2013-03-22 14:30:00,67.1,37.6,30.05,SSW,203,0.0,2.6,34,0.00,,,0.00,WUHU216HW,2013-03-22 21:30:00,
2013-03-22 14:35:00,67.4,37.9,30.05,SW,225,0.0,2.2,34,0.00,,,0.00,WUHU216HW,2013-03-22 21:35:00,
2013-03-22 14:40:00,67.6,38.0,30.06,WNW,293,0.0,2.2,34,0.00,,,0.00,WUHU216HW,2013-03-22 21:40:00,
2013-03-22 14:45:00,67.8,38.2,30.06,WNW,293,0.0,2.0,34,0.00,,,0.00,WUHU216HW,2013-03-22 21:45:00,
2013-03-22 14:50:00,67.8,37.4,30.06,SW,225,0.0,2.0,33,0.00,,,0.00,WUHU216HW,2013-03-22 21:50:00,
2013-03-22 14:55:00,67.8,37.4,30.05,North,0,1.1,1.1,33,0.00,,,0.00,WUHU216HW,2013-03-22 21:55:00,
2013-03-22 15:00:00,68.0,37.6,30.05,WSW,248,0.0,2.0,33,0.00,,,0.00,WUHU216HW,2013-03-22 22:00:00,
2013-03-22 15:05:00,68.1,37.7,30.05,NE,45,0.0,2.0,33,0.00,,,0.00,WUHU216HW,2013-03-22 22:05:00,
2013-03-22 15:11:00,68.3,37.9,30.04,SW,225,1.5,1.5,33,0.00,,,0.00,WUHU216HW,2013-03-22 22:11:00,
2013-03-22 15:16:00,68.3,37.9,30.04,South,180,0.0,1.5,33,0.00,,,0.00,WUHU216HW,2013-03-22 22:16:00,
2013-03-22 15:21:00,68.5,38.1,30.04,NW,315,0.0,0.0,33,0.00,,,0.00,WUHU216HW,2013-03-22 22:21:00,
2013-03-22 15:26:00,68.7,38.2,30.04,West,270,0.0,0.0,33,0.00,,,0.00,WUHU216HW,2013-03-22 22:26:00,
2013-03-22 15:32:00,68.9,38.4,30.04,West,270,0.0,0.0,33,0.00,,,0.00,WUHU216HW,2013-03-22 22:32:00,
2013-03-22 15:37:00,69.0,38.6,30.04,WSW,248,0.0,1.1,33,0.00,,,0.00,WUHU216HW,2013-03-22 22:37:00,
2013-03-22 15:42:00,69.4,38.9,30.04,NE,45,0.0,1.1,33,0.00,,,0.00,WUHU216HW,2013-03-22 22:42:00,
2013-03-22 15:47:00,69.0,37.8,30.03,WSW,248,0.0,2.4,32,0.00,,,0.00,WUHU216HW,2013-03-22 22:47:00,
2013-03-22 15:52:00,69.0,37.8,30.04,WNW,293,1.5,2.4,32,0.00,,,0.00,WUHU216HW,2013-03-22 22:52:00,
2013-03-22 15:57:00,69.0,37.8,30.03,SE,135,0.8,2.0,32,0.00,,,0.00,WUHU216HW,2013-03-22 22:57:00,
2013-03-22 16:02:00,69.0,37.8,30.03,WNW,293,0.0,2.0,32,0.00,,,0.00,WUHU216HW,2013-03-22 23:02:00,
2013-03-22 16:07:00,69.0,37.1,30.03,WNW,293,1.3,1.3,31,0.00,,,0.00,WUHU216HW,2013-03-22 23:07:00,
2013-03-22 16:12:00,69.0,37.8,30.03,North,0,0.0,3.3,32,0.00,,,0.00,WUHU216HW,2013-03-22 23:12:00,
2013-03-22 16:17:00,69.0,37.8,30.04,WNW,293,0.0,3.3,32,0.00,,,0.00,WUHU216HW,2013-03-22 23:17:00,
2013-03-22 16:22:00,69.4,38.1,30.03,SSW,203,0.6,1.5,32,0.00,,,0.00,WUHU216HW,2013-03-22 23:22:00,
2013-03-22 16:27:00,69.6,38.3,30.03,WNW,293,0.0,1.5,32,0.00,,,0.00,WUHU216HW,2013-03-22 23:27:00,
2013-03-22 16:32:00,69.6,38.3,30.03,WSW,248,1.3,1.3,32,0.00,,,0.00,WUHU216HW,2013-03-22 23:32:00,
2013-03-22 16:38:00,69.6,39.0,30.03,WNW,293,0.0,1.3,33,0.00,,,0.00,WUHU216HW,2013-03-22 23:38:00,
2013-03-22 16:43:00,69.6,39.0,30.03,WSW,248,0.0,1.3,33,0.00,,,0.00,WUHU216HW,2013-03-22 23:43:00,
2013-03-22 16:48:00,69.6,39.8,30.03,NNW,338,0.0,0.0,34,0.00,,,0.00,WUHU216HW,2013-03-22 23:48:00,
2013-03-22 16:53:00,69.6,39.8,30.03,NE,45,0.8,0.8,34,0.00,,,0.00,WUHU216HW,2013-03-22 23:53:00,
2013-03-22 16:58:00,69.6,39.8,30.03,SSW,203,0.0,0.8,34,0.00,,,0.00,WUHU216HW,2013-03-22 23:58:00,
2013-03-22 17:03:00,69.4,39.6,30.03,East,90,0.0,0.6,34,0.00,,,0.00,WUHU216HW,2013-03-23 00:03:00,
2013-03-22 17:08:00,69.6,40.5,30.03,East,90,0.0,0.0,35,0.00,,,0.00,WUHU216HW,2013-03-23 00:08:00,
2013-03-22 17:13:00,69.6,40.5,30.03,SW,225,0.0,0.0,35,0.00,,,0.00,WUHU216HW,2013-03-23 00:13:00,
2013-03-22 17:18:00,69.6,40.5,30.03,SW,225,0.0,0.0,35,0.00,,,0.00,WUHU216HW,2013-03-23 00:18:00,
2013-03-22 17:23:00,69.6,41.3,30.03,SSE,158,0.0,0.0,36,0.00,,,0.00,WUHU216HW,2013-03-23 00:23:00,
2013-03-22 17:28:00,69.4,41.1,30.03,NE,45,0.0,0.0,36,0.00,,,0.00,WUHU216HW,2013-03-23 00:28:00,
2013-03-22 17:33:00,69.0,40.8,30.03,NW,315,0.0,0.0,36,0.00,,,0.00,WUHU216HW,2013-03-23 00:33:00,
2013-03-22 17:38:00,68.7,40.4,30.03,South,180,0.0,0.0,36,0.00,,,0.00,WUHU216HW,2013-03-23 00:38:00,
2013-03-22 17:43:00,68.5,40.3,30.03,WNW,293,0.0,0.0,36,0.00,,,0.00,WUHU216HW,2013-03-23 00:43:00,
2013-03-22 17:48:00,68.3,40.1,30.03,WSW,248,0.0,0.8,36,0.00,,,0.00,WUHU216HW,2013-03-23 00:48:00,
2013-03-22 17:54:00,67.8,39.2,30.03,ENE,68,0.0,0.8,35,0.00,,,0.00,WUHU216HW,2013-03-23 00:54:00,
2013-03-22 17:59:00,67.8,38.9,30.03,WSW,248,0.0,0.0,35,0.00,,,0.00,WUHU216HW,2013-03-23 00:59:00,
2013-03-22 18:04:00,67.6,38.8,30.03,East,90,0.0,0.0,35,0.00,,,0.00,WUHU216HW,2013-03-23 01:04:00,
2013-03-22 18:09:00,67.6,39.5,30.03,WNW,293,0.0,1.1,36,0.00,,,0.00,WUHU216HW,2013-03-23 01:09:00,
2013-03-22 18:14:00,67.2,39.2,30.03,West,270,0.0,1.1,36,0.00,,,0.00,WUHU216HW,2013-03-23 01:14:00,
2013-03-22 18:19:00,67.2,38.4,30.03,WNW,293,0.0,0.0,35,0.00,,,0.00,WUHU216HW,2013-03-23 01:19:00,
2013-03-22 18:24:00,66.9,38.3,30.03,East,90,0.0,0.0,35,0.00,,,0.00,WUHU216HW,2013-03-23 01:24:00,
2013-03-22 18:29:00,66.9,38.9,30.03,West,270,0.0,0.0,36,0.00,,,0.00,WUHU216HW,2013-03-23 01:29:00,
2013-03-22 18:34:00,66.9,38.9,30.03,SW,225,0.0,0.0,36,0.00,,,0.00,WUHU216HW,2013-03-23 01:34:00,
2013-03-22 18:39:00,66.7,38.7,30.03,East,90,0.0,0.0,36,0.00,,,0.00,WUHU216HW,2013-03-23 01:39:00,
2013-03-22 18:44:00,66.5,38.6,30.03,South,180,0.0,0.0,36,0.00,,,0.00,WUHU216HW,2013-03-23 01:44:00,
2013-03-22 18:49:00,66.3,38.4,30.04,WSW,248,0.0,0.0,36,0.00,,,0.00,WUHU216HW,2013-03-23 01:49:00,
2013-03-22 18:54:00,66.0,38.1,30.04,WSW,248,0.0,0.0,36,0.00,,,0.00,WUHU216HW,2013-03-23 01:54:00,
2013-03-22 18:59:00,66.0,38.8,30.04,WSW,248,0.0,0.0,37,0.00,,,0.00,WUHU216HW,2013-03-23 01:59:00,
2013-03-22 19:04:00,65.8,39.4,30.04,WSW,248,0.0,0.0,38,0.00,,,0.00,WUHU216HW,2013-03-23 02:04:00,
2013-03-22 19:09:00,65.4,39.0,30.04,North,0,0.0,0.0,38,0.00,,,0.00,WUHU216HW,2013-03-23 02:09:00,
2013-03-22 19:14:00,65.1,38.7,30.03,WNW,293,0.0,0.0,38,0.00,,,0.00,WUHU216HW,2013-03-23 02:14:00,
2013-03-22 19:19:00,64.7,39.1,30.03,West,270,0.0,0.0,39,0.00,,,0.00,WUHU216HW,2013-03-23 02:19:00,
2013-03-22 19:24:00,64.2,38.6,30.03,WNW,293,0.0,0.0,39,0.00,,,0.00,WUHU216HW,2013-03-23 02:24:00,
2013-03-22 19:29:00,64.0,38.5,30.03,West,270,0.0,0.0,39,0.00,,,0.00,WUHU216HW,2013-03-23 02:29:00,
2013-03-22 19:35:00,63.6,38.1,30.04,West,270,0.0,0.0,39,0.00,,,0.00,WUHU216HW,2013-03-23 02:35:00,
2013-03-22 19:40:00,63.3,38.5,30.04,West,270,0.0,0.0,40,0.00,,,0.00,WUHU216HW,2013-03-23 02:40:00,
2013-03-22 19:45:00,62.9,38.2,30.04,West,270,0.0,0.0,40,0.00,,,0.00,WUHU216HW,2013-03-23 02:45:00,
2013-03-22 19:50:00,62.4,38.3,30.04,WSW,248,0.0,0.0,41,0.00,,,0.00,WUHU216HW,2013-03-23 02:50:00,
2013-03-22 19:55:00,62.2,38.1,30.04,WSW,248,0.0,0.0,41,0.00,,,0.00,WUHU216HW,2013-03-23 02:55:00,
2013-03-22 20:00:00,61.7,37.7,30.04,South,180,0.0,0.0,41,0.00,,,0.00,WUHU216HW,2013-03-23 03:00:00,
2013-03-22 20:05:00,61.3,37.9,30.05,South,180,0.0,1.3,42,0.00,,,0.00,WUHU216HW,2013-03-23 03:05:00,
2013-03-22 20:10:00,60.6,38.2,30.05,SSW,203,0.0,1.3,43,0.00,,,0.00,WUHU216HW,2013-03-23 03:10:00,
2013-03-22 20:15:00,60.4,38.3,30.05,SSW,203,0.0,0.0,44,0.00,,,0.00,WUHU216HW,2013-03-23 03:15:00,
2013-03-22 20:20:00,60.0,37.9,30.05,SSW,203,0.0,0.0,44,0.00,,,0.00,WUHU216HW,2013-03-23 03:20:00,
2013-03-22 20:25:00,59.9,38.3,30.05,SSW,203,0.0,0.0,45,0.00,,,0.00,WUHU216HW,2013-03-23 03:25:00,
2013-03-22 20:30:00,59.5,38.0,30.05,SSW,203,0.0,0.0,45,0.00,,,0.00,WUHU216HW,2013-03-23 03:30:00,
2013-03-22 20:35:00,59.3,38.4,30.06,SSW,203,0.0,0.0,46,0.00,,,0.00,WUHU216HW,2013-03-23 03:35:00,
2013-03-22 20:40:00,58.8,37.9,30.06,SSW,203,0.0,0.0,46,0.00,,,0.00,WUHU216HW,2013-03-23 03:40:00,
2013-03-22 20:46:00,58.8,38.5,30.06,SSW,203,0.0,0.0,47,0.00,,,0.00,WUHU216HW,2013-03-23 03:46:00,
2013-03-22 20:51:00,58.8,38.5,30.06,SSW,203,0.0,0.0,47,0.00,,,0.00,WUHU216HW,2013-03-23 03:51:00,
2013-03-22 20:56:00,58.4,38.2,30.06,SSW,203,0.0,0.0,47,0.00,,,0.00,WUHU216HW,2013-03-23 03:56:00,
2013-03-22 21:00:00,58.2,38.6,30.06,SSW,203,0.0,0.0,48,0.00,,,0.00,WUHU216HW,2013-03-23 04:00:00,
2013-03-22 21:01:00,58.2,38.6,30.06,SSW,203,0.0,0.0,48,0.00,,,0.00,WUHU216HW,2013-03-23 04:01:00,
2013-03-22 21:06:00,57.9,38.3,30.06,SSW,203,0.0,0.0,48,0.00,,,0.00,WUHU216HW,2013-03-23 04:06:00,
2013-03-22 21:11:00,57.5,38.0,30.06,SSW,203,0.0,0.0,48,0.00,,,0.00,WUHU216HW,2013-03-23 04:11:00,
2013-03-22 21:16:00,57.3,38.4,30.06,SSW,203,0.0,0.0,49,0.00,,,0.00,WUHU216HW,2013-03-23 04:16:00,
2013-03-22 21:21:00,57.2,38.8,30.06,SSW,203,0.0,0.0,50,0.00,,,0.00,WUHU216HW,2013-03-23 04:21:00,
2013-03-22 21:27:00,57.0,38.6,30.06,SSW,203,0.0,0.0,50,0.00,,,0.00,WUHU216HW,2013-03-23 04:27:00,
2013-03-22 21:32:00,57.0,38.6,30.06,SSW,203,0.0,0.0,50,0.00,,,0.00,WUHU216HW,2013-03-23 04:32:00,
2013-03-22 21:37:00,56.8,38.4,30.06,SSW,203,0.0,0.0,50,0.00,,,0.00,WUHU216HW,2013-03-23 04:37:00,
2013-03-22 21:42:00,56.4,38.1,30.05,SSW,203,0.0,0.0,50,0.00,,,0.00,WUHU216HW,2013-03-23 04:42:00,
2013-03-22 21:47:00,56.3,38.4,30.06,SSW,203,0.0,0.0,51,0.00,,,0.00,WUHU216HW,2013-03-23 04:47:00,
2013-03-22 21:52:00,56.3,38.4,30.06,SSW,203,0.0,0.0,51,0.00,,,0.00,WUHU216HW,2013-03-23 04:52:00,
2013-03-22 21:57:00,56.1,38.2,30.06,SSW,203,0.0,0.0,51,0.00,,,0.00,WUHU216HW,2013-03-23 04:57:00,
2013-03-22 22:02:00,55.9,38.0,30.06,SSW,203,0.0,0.0,51,0.00,,,0.00,WUHU216HW,2013-03-23 05:02:00,
2013-03-22 22:07:00,55.7,37.8,30.06,SSW,203,0.0,0.0,51,0.00,,,0.00,WUHU216HW,2013-03-23 05:07:00,
2013-03-22 22:12:00,55.4,37.9,30.06,SSW,203,0.0,0.0,52,0.00,,,0.00,WUHU216HW,2013-03-23 05:12:00,
2013-03-22 22:17:00,55.4,37.9,30.06,SSW,203,0.0,0.0,52,0.00,,,0.00,WUHU216HW,2013-03-23 05:17:00,
2013-03-22 22:22:00,55.2,38.2,30.06,SSW,203,0.0,0.0,53,0.00,,,0.00,WUHU216HW,2013-03-23 05:22:00,
2013-03-22 22:27:00,55.0,38.2,30.06,SSW,203,0.0,0.0,53,0.00,,,0.00,WUHU216HW,2013-03-23 05:27:00,
2013-03-22 22:32:00,55.0,38.1,30.06,SSW,203,0.0,0.0,53,0.00,,,0.00,WUHU216HW,2013-03-23 05:32:00,
2013-03-22 22:38:00,54.8,37.9,30.06,SSW,203,0.0,0.0,53,0.00,,,0.00,WUHU216HW,2013-03-23 05:38:00,
2013-03-22 22:43:00,54.6,38.2,30.06,SSW,203,0.0,0.0,54,0.00,,,0.00,WUHU216HW,2013-03-23 05:43:00,
2013-03-22 22:48:00,54.5,38.1,30.06,SSW,203,0.0,0.0,54,0.00,,,0.00,WUHU216HW,2013-03-23 05:48:00,
2013-03-22 22:53:00,54.3,37.9,30.06,SSW,203,0.0,0.0,54,0.00,,,0.00,WUHU216HW,2013-03-23 05:53:00,
2013-03-22 22:58:00,54.1,37.7,30.07,SSW,203,0.0,0.0,54,0.00,,,0.00,WUHU216HW,2013-03-23 05:58:00,
2013-03-22 23:03:00,53.9,37.6,30.07,SSW,203,0.0,0.0,54,0.00,,,0.00,WUHU216HW,2013-03-23 06:03:00,
2013-03-22 23:08:00,53.7,37.9,30.07,SSW,203,0.0,0.0,55,0.00,,,0.00,WUHU216HW,2013-03-23 06:08:00,
2013-03-22 23:13:00,53.7,37.9,30.07,SSW,203,0.0,0.0,55,0.00,,,0.00,WUHU216HW,2013-03-23 06:13:00,
2013-03-22 23:18:00,53.4,37.5,30.07,SSW,203,0.0,0.0,55,0.00,,,0.00,WUHU216HW,2013-03-23 06:18:00,
2013-03-22 23:23:00,53.2,37.8,30.07,SSW,203,0.0,0.0,56,0.00,,,0.00,WUHU216HW,2013-03-23 06:23:00,
2013-03-22 23:28:00,53.2,37.8,30.07,SSW,203,0.0,0.0,56,0.00,,,0.00,WUHU216HW,2013-03-23 06:28:00,
2013-03-22 23:33:00,53.0,37.7,30.07,SSW,203,0.0,0.0,56,0.00,,,0.00,WUHU216HW,2013-03-23 06:33:00,
2013-03-22 23:38:00,52.8,37.5,30.07,SSW,203,0.0,0.0,56,0.00,,,0.00,WUHU216HW,2013-03-23 06:38:00,
2013-03-22 23:43:00,52.7,37.3,30.06,SSW,203,0.0,0.0,56,0.00,,,0.00,WUHU216HW,2013-03-23 06:43:00,
2013-03-22 23:48:00,52.7,37.3,30.07,SSW,203,0.0,0.0,56,0.00,,,0.00,WUHU216HW,2013-03-23 06:48:00,
2013-03-22 23:53:00,52.5,37.6,30.07,SSW,203,0.0,0.0,57,0.00,,,0.00,WUHU216HW,2013-03-23 06:53:00,
2013-03-22 23:58:00,52.5,37.6,30.07,SSW,203,0.0,0.0,57,0.00,,,0.00,WUHU216HW,2013-03-23 06:58:00,